createdAt,value
2023-05-22T00:00:13.435Z,12.92
2023-05-22T00:02:44.091Z,12.91
2023-05-22T00:05:14.535Z,12.97
2023-05-22T00:07:43.455Z,13.05
2023-05-22T00:10:11.766Z,13.12
2023-05-22T00:12:39.643Z,13.13
2023-05-22T00:15:08.106Z,13.13
2023-05-22T00:17:35.901Z,13.11
2023-05-22T00:20:07.174Z,13.07
2023-05-22T00:22:35.675Z,13.02
2023-05-22T00:25:07.423Z,12.97
2023-05-22T00:27:35.172Z,12.86
2023-05-22T00:30:03.825Z,12.69
2023-05-22T00:32:31.405Z,12.59
2023-05-22T00:34:59.855Z,12.53
2023-05-22T00:37:27.457Z,12.50
2023-05-22T00:39:55.063Z,12.47
2023-05-22T00:42:23.201Z,12.45
2023-05-22T00:44:50.918Z,12.47
2023-05-22T00:47:18.646Z,12.49
2023-05-22T00:49:46.708Z,12.48
2023-05-22T00:52:15.030Z,12.42
2023-05-22T00:54:43.719Z,12.40
2023-05-22T00:57:11.522Z,12.37
2023-05-22T00:59:39.237Z,12.31
2023-05-22T01:02:06.954Z,12.26
2023-05-22T01:04:35.324Z,12.26
2023-05-22T01:07:03.437Z,12.24
2023-05-22T01:09:31.209Z,12.21
2023-05-22T01:12:24.299Z,12.21
2023-05-22T01:15:13.746Z,12.17
2023-05-22T01:18:30.229Z,12.13
2023-05-22T01:21:13.462Z,12.11
2023-05-22T01:24:19.946Z,12.10
2023-05-22T01:27:26.021Z,12.13
2023-05-22T01:30:07.207Z,12.13
2023-05-22T01:32:36.902Z,12.11
2023-05-22T01:35:11.732Z,12.09
2023-05-22T01:37:40.228Z,12.11
2023-05-22T01:40:10.120Z,12.10
2023-05-22T01:42:41.232Z,12.07
2023-05-22T01:45:11.863Z,12.03
2023-05-22T01:47:39.730Z,12.03
2023-05-22T01:50:08.517Z,12.02
2023-05-22T01:53:08.824Z,12.02
2023-05-22T01:56:05.459Z,12.02
2023-05-22T01:58:52.940Z,12.03
2023-05-22T02:01:27.202Z,12.00
2023-05-22T02:03:58.295Z,12.02
2023-05-22T02:06:32.239Z,12.04
2023-05-22T02:09:02.919Z,12.06
2023-05-22T02:11:34.675Z,12.05
2023-05-22T02:14:02.920Z,12.02
2023-05-22T02:16:30.694Z,12.00
2023-05-22T02:19:07.956Z,11.93
2023-05-22T02:21:36.403Z,11.91
2023-05-22T02:24:04.288Z,11.85
2023-05-22T02:26:31.904Z,11.79
2023-05-22T02:29:00.795Z,11.74
2023-05-22T02:31:28.460Z,11.70
2023-05-22T02:33:57.809Z,11.65
2023-05-22T02:36:26.282Z,11.59
2023-05-22T02:38:55.575Z,11.52
2023-05-22T02:41:23.429Z,11.51
2023-05-22T02:43:51.097Z,11.52
2023-05-22T02:46:18.715Z,11.51
2023-05-22T02:48:46.253Z,11.52
2023-05-22T02:51:13.902Z,11.53
2023-05-22T02:53:41.787Z,11.54
2023-05-22T02:56:13.177Z,11.54
2023-05-22T02:58:40.698Z,11.57
2023-05-22T03:01:11.617Z,11.61
2023-05-22T03:03:39.392Z,11.65
2023-05-22T03:06:08.897Z,11.68
2023-05-22T03:08:38.330Z,11.70
2023-05-22T03:11:05.843Z,11.76
2023-05-22T03:13:33.365Z,11.81
2023-05-22T03:16:01.101Z,11.88
2023-05-22T03:18:29.264Z,11.96
2023-05-22T03:20:57.234Z,12.02
2023-05-22T03:23:25.343Z,12.11
2023-05-22T03:25:53.465Z,12.20
2023-05-22T03:28:22.918Z,12.31
2023-05-22T03:30:51.074Z,12.28
2023-05-22T03:33:23.964Z,12.41
2023-05-22T03:35:51.880Z,12.54
2023-05-22T03:38:19.525Z,12.58
2023-05-22T03:40:47.089Z,12.72
2023-05-22T03:43:15.215Z,12.88
2023-05-22T03:45:43.894Z,12.69
2023-05-22T03:48:12.847Z,12.77
2023-05-22T03:50:41.028Z,12.92
2023-05-22T03:53:08.798Z,12.89
2023-05-22T03:55:37.923Z,12.86
2023-05-22T03:58:05.539Z,13.28
2023-05-22T04:00:33.349Z,13.45
2023-05-22T04:03:01.480Z,13.61
2023-05-22T04:05:30.438Z,13.71
2023-05-22T04:07:58.125Z,13.77
2023-05-22T04:10:25.875Z,13.54
2023-05-22T04:12:53.391Z,13.79
2023-05-22T04:15:21.937Z,15.93
2023-05-22T04:17:50.087Z,17.39
2023-05-22T04:20:18.087Z,18.58
2023-05-22T04:22:45.886Z,19.82
2023-05-22T04:25:13.488Z,20.39
2023-05-22T04:27:41.073Z,21.09
2023-05-22T04:30:10.565Z,22.46
2023-05-22T04:32:40.979Z,23.40
2023-05-22T04:35:10.177Z,23.87
2023-05-22T04:37:41.089Z,25.09
2023-05-22T04:40:10.154Z,26.49
2023-05-22T04:42:39.028Z,27.57
2023-05-22T04:45:07.446Z,28.65
2023-05-22T04:47:34.949Z,28.61
2023-05-22T04:50:07.725Z,29.39
2023-05-22T04:52:36.221Z,29.32
2023-05-22T04:55:06.766Z,29.41
2023-05-22T04:57:34.213Z,30.15
2023-05-22T05:00:01.972Z,28.94
2023-05-22T05:02:32.600Z,28.88
2023-05-22T05:05:00.175Z,29.24
2023-05-22T05:07:27.920Z,29.13
2023-05-22T05:09:55.662Z,29.94
2023-05-22T05:12:23.462Z,30.70
2023-05-22T05:14:51.589Z,31.23
2023-05-22T05:17:19.301Z,32.39
2023-05-22T05:19:46.779Z,31.63
2023-05-22T05:22:14.351Z,27.26
2023-05-22T05:24:41.857Z,26.67
2023-05-22T05:27:10.045Z,24.48
2023-05-22T05:29:38.140Z,26.30
2023-05-22T05:32:19.814Z,25.49
2023-05-22T05:34:51.772Z,27.81
2023-05-22T05:37:28.832Z,30.76
2023-05-22T05:39:59.970Z,32.51
2023-05-22T05:42:27.767Z,31.74
2023-05-22T05:44:58.635Z,30.54
2023-05-22T05:47:30.654Z,33.57
2023-05-22T05:49:58.866Z,30.43
2023-05-22T05:52:32.815Z,33.04
2023-05-22T05:55:03.499Z,29.95
2023-05-22T05:57:31.541Z,30.78
2023-05-22T05:59:59.143Z,31.92
2023-05-22T06:02:41.960Z,32.57
2023-05-22T06:05:23.188Z,32.17
2023-05-22T06:07:58.281Z,31.99
2023-05-22T06:10:26.442Z,29.38
2023-05-22T06:13:11.522Z,31.01
2023-05-22T06:15:39.651Z,30.69
2023-05-22T06:18:07.249Z,31.99
2023-05-22T06:20:35.384Z,29.62
2023-05-22T06:23:03.114Z,29.17
2023-05-22T06:25:30.637Z,28.42
2023-05-22T06:27:59.456Z,29.45
2023-05-22T06:30:38.802Z,32.65
2023-05-22T06:33:10.396Z,36.01
2023-05-22T06:35:38.244Z,35.71
2023-05-22T06:38:06.884Z,35.82
2023-05-22T06:40:35.045Z,34.75
2023-05-22T06:43:13.407Z,34.29
2023-05-22T06:45:49.876Z,34.75
2023-05-22T06:48:20.685Z,34.88
2023-05-22T06:51:04.794Z,34.75
2023-05-22T06:53:32.874Z,36.26
2023-05-22T06:56:00.983Z,36.88
2023-05-22T06:58:41.174Z,38.37
2023-05-22T07:01:09.129Z,36.05
2023-05-22T07:03:44.361Z,33.94
2023-05-22T07:06:33.529Z,38.03
2023-05-22T07:09:03.004Z,37.75
2023-05-22T07:11:31.074Z,37.94
2023-05-22T07:13:59.077Z,39.22
2023-05-22T07:16:26.742Z,39.74
2023-05-22T07:18:55.834Z,38.46
2023-05-22T07:21:26.303Z,35.39
2023-05-22T07:23:56.415Z,32.21
2023-05-22T07:26:26.055Z,35.24
2023-05-22T07:29:03.912Z,37.84
2023-05-22T07:31:33.711Z,37.96
2023-05-22T07:34:02.782Z,37.81
2023-05-22T07:36:32.006Z,35.78
2023-05-22T07:38:59.813Z,35.92
2023-05-22T07:41:27.667Z,36.68
2023-05-22T07:43:55.521Z,34.47
2023-05-22T07:46:28.250Z,35.82
2023-05-22T07:49:01.234Z,35.98
2023-05-22T07:51:29.019Z,38.29
2023-05-22T07:53:56.721Z,38.86
2023-05-22T07:56:25.898Z,38.11
2023-05-22T07:58:56.732Z,35.73
2023-05-22T08:01:24.526Z,35.10
2023-05-22T08:03:52.249Z,36.11
2023-05-22T08:06:19.991Z,36.92
2023-05-22T08:08:47.555Z,31.85
2023-05-22T08:11:15.015Z,32.92
2023-05-22T08:13:42.624Z,32.27
2023-05-22T08:16:11.123Z,31.41
2023-05-22T08:18:38.725Z,34.93
2023-05-22T08:21:06.335Z,35.33
2023-05-22T08:23:36.438Z,34.48
2023-05-22T08:26:04.573Z,35.51
2023-05-22T08:28:32.130Z,34.76
2023-05-22T08:30:59.786Z,34.62
2023-05-22T08:33:27.395Z,32.77
2023-05-22T08:35:54.952Z,33.67
2023-05-22T08:38:22.500Z,33.96
2023-05-22T08:40:54.113Z,34.89
2023-05-22T08:43:22.165Z,33.00
2023-05-22T08:45:58.757Z,30.53
2023-05-22T08:48:34.250Z,32.61
2023-05-22T08:51:06.206Z,31.98
2023-05-22T08:53:38.907Z,33.64
2023-05-22T08:56:11.385Z,34.86
2023-05-22T08:58:39.445Z,34.21
2023-05-22T09:01:08.075Z,32.34
2023-05-22T09:03:36.946Z,32.02
2023-05-22T09:06:09.323Z,31.82
2023-05-22T09:08:38.882Z,32.47
2023-05-22T09:11:06.541Z,31.48
2023-05-22T09:13:33.941Z,30.75
2023-05-22T09:16:12.658Z,30.47
2023-05-22T09:18:44.810Z,28.57
2023-05-22T09:21:28.653Z,28.24
2023-05-22T09:24:01.606Z,28.93
2023-05-22T09:26:30.191Z,28.73
2023-05-22T09:29:00.254Z,28.22
2023-05-22T09:31:31.836Z,29.73
2023-05-22T09:33:59.904Z,29.93
2023-05-22T09:36:35.155Z,28.76
2023-05-22T09:39:04.570Z,29.18
2023-05-22T09:41:40.123Z,29.68
2023-05-22T09:44:16.046Z,28.78
2023-05-22T09:46:48.036Z,28.90
2023-05-22T09:49:17.274Z,29.09
2023-05-22T09:51:49.550Z,28.95
2023-05-22T09:54:20.581Z,28.96
2023-05-22T09:56:50.989Z,27.27
2023-05-22T09:59:26.874Z,27.56
2023-05-22T10:01:55.040Z,27.52
2023-05-22T10:04:24.153Z,28.52
2023-05-22T10:06:57.248Z,27.87
2023-05-22T10:09:31.335Z,28.38
2023-05-22T10:12:04.404Z,27.90
2023-05-22T10:14:33.437Z,28.70
2023-05-22T10:17:04.981Z,28.80
2023-05-22T10:19:33.996Z,27.98
2023-05-22T10:22:03.188Z,27.20
2023-05-22T10:24:31.989Z,27.14
2023-05-22T10:27:00.331Z,27.67
2023-05-22T10:29:47.588Z,27.67
2023-05-22T10:32:42.763Z,26.03
2023-05-22T10:35:41.506Z,28.00
2023-05-22T10:38:57.585Z,28.59
2023-05-22T10:41:26.626Z,28.71
2023-05-22T10:43:56.922Z,28.46
2023-05-22T10:46:25.057Z,28.23
2023-05-22T10:48:55.360Z,27.12
2023-05-22T10:51:23.779Z,27.87
2023-05-22T10:54:00.944Z,28.13
2023-05-22T10:56:35.756Z,28.42
2023-05-22T10:59:07.608Z,29.14
2023-05-22T11:01:38.144Z,28.97
2023-05-22T11:04:19.186Z,28.08
2023-05-22T11:07:06.815Z,27.77
2023-05-22T11:09:48.822Z,28.19
2023-05-22T11:12:27.497Z,28.57
2023-05-22T11:15:11.048Z,28.19
2023-05-22T11:17:51.244Z,28.78
2023-05-22T11:20:26.011Z,29.38
2023-05-22T11:23:03.798Z,29.50
2023-05-22T11:25:35.015Z,28.29
2023-05-22T11:28:05.676Z,28.51
2023-05-22T11:30:35.109Z,27.81
2023-05-22T11:33:03.094Z,28.76
2023-05-22T11:35:31.349Z,27.89
2023-05-22T11:37:58.995Z,28.25
2023-05-22T11:40:29.611Z,28.22
2023-05-22T11:42:57.513Z,28.32
2023-05-22T11:45:25.330Z,27.40
2023-05-22T11:47:53.110Z,28.06
2023-05-22T11:50:33.316Z,28.18
2023-05-22T11:53:08.373Z,29.11
2023-05-22T11:55:36.003Z,29.28
2023-05-22T11:58:03.592Z,29.54
2023-05-22T12:00:31.970Z,29.14
2023-05-22T12:03:00.007Z,28.98
2023-05-22T12:05:27.762Z,28.67
2023-05-22T12:07:55.341Z,28.63
2023-05-22T12:10:22.980Z,28.04
2023-05-22T12:12:50.666Z,28.60
2023-05-22T12:15:21.240Z,28.67
2023-05-22T12:17:49.006Z,28.41
2023-05-22T12:20:16.744Z,27.58
2023-05-22T12:22:44.612Z,26.68
2023-05-22T12:25:20.599Z,26.93
2023-05-22T12:27:48.235Z,27.94
2023-05-22T12:30:16.731Z,29.30
2023-05-22T12:32:49.460Z,29.59
2023-05-22T12:35:18.031Z,28.76
2023-05-22T12:37:52.276Z,27.82
2023-05-22T12:40:20.072Z,28.05
2023-05-22T12:42:49.324Z,28.13
2023-05-22T12:45:18.121Z,27.86
2023-05-22T12:47:47.000Z,27.57
2023-05-22T12:50:16.180Z,27.74
2023-05-22T12:52:43.630Z,28.17
2023-05-22T12:55:11.981Z,27.41
2023-05-22T12:57:39.542Z,27.61
2023-05-22T13:00:07.642Z,28.15
2023-05-22T13:02:35.423Z,27.70
2023-05-22T13:05:03.317Z,28.23
2023-05-22T13:07:31.238Z,28.20
2023-05-22T13:09:58.857Z,27.67
2023-05-22T13:12:27.296Z,27.78
2023-05-22T13:14:54.904Z,27.57
2023-05-22T13:17:22.508Z,27.75
2023-05-22T13:19:50.172Z,27.93
2023-05-22T13:22:18.363Z,28.29
2023-05-22T13:24:45.943Z,28.30
2023-05-22T13:27:15.955Z,27.81
2023-05-22T13:29:44.356Z,28.82
2023-05-22T13:32:14.118Z,28.55
2023-05-22T13:34:42.442Z,26.82
2023-05-22T13:37:10.191Z,26.18
2023-05-22T13:39:37.884Z,25.92
2023-05-22T13:42:05.993Z,25.16
2023-05-22T13:44:33.581Z,24.92
2023-05-22T13:47:01.185Z,24.91
2023-05-22T13:49:29.065Z,25.60
2023-05-22T13:51:56.465Z,25.61
2023-05-22T13:54:24.122Z,25.97
2023-05-22T13:56:51.692Z,26.55
2023-05-22T13:59:19.178Z,27.14
2023-05-22T14:01:46.711Z,28.02
2023-05-22T14:04:14.196Z,27.63
2023-05-22T14:06:43.482Z,27.83
2023-05-22T14:09:11.197Z,28.22
2023-05-22T14:11:38.609Z,27.74
2023-05-22T14:14:06.177Z,27.35
2023-05-22T14:16:33.749Z,27.06
2023-05-22T14:19:01.605Z,27.49
2023-05-22T14:21:29.260Z,28.30
2023-05-22T14:23:57.141Z,28.60
2023-05-22T14:26:24.940Z,28.69
2023-05-22T14:28:53.029Z,29.31
2023-05-22T14:31:20.543Z,28.68
2023-05-22T14:33:48.187Z,29.32
2023-05-22T14:36:17.895Z,28.72
2023-05-22T14:38:45.324Z,28.86
2023-05-22T14:41:13.550Z,28.50
2023-05-22T14:43:40.962Z,28.52
2023-05-22T14:46:08.432Z,28.13
2023-05-22T14:48:35.883Z,26.80
2023-05-22T14:51:03.317Z,25.83
2023-05-22T14:53:30.644Z,24.60
2023-05-22T14:55:58.118Z,24.47
2023-05-22T14:58:25.852Z,24.04
2023-05-22T15:00:53.371Z,23.69
2023-05-22T15:03:21.605Z,22.87
2023-05-22T15:05:49.465Z,22.71
2023-05-22T15:08:19.104Z,22.39
2023-05-22T15:10:46.682Z,22.12
2023-05-22T15:13:14.682Z,21.96
2023-05-22T15:15:42.436Z,21.98
2023-05-22T15:18:10.579Z,21.86
2023-05-22T15:20:38.084Z,22.04
2023-05-22T15:23:06.499Z,22.14
2023-05-22T15:25:36.689Z,22.18
2023-05-22T15:28:07.975Z,22.06
2023-05-22T15:30:36.562Z,22.07
2023-05-22T15:33:04.791Z,21.96
2023-05-22T15:35:32.777Z,21.88
2023-05-22T15:38:00.722Z,21.75
2023-05-22T15:40:28.334Z,21.66
2023-05-22T15:42:56.167Z,21.52
2023-05-22T15:45:23.774Z,21.42
2023-05-22T15:47:51.644Z,21.27
2023-05-22T15:50:19.111Z,21.11
2023-05-22T15:52:46.537Z,20.99
2023-05-22T15:55:14.138Z,20.84
2023-05-22T15:57:41.635Z,20.87
2023-05-22T16:00:10.233Z,20.73
2023-05-22T16:02:38.144Z,20.91
2023-05-22T16:05:05.974Z,20.92
2023-05-22T16:07:33.522Z,20.91
2023-05-22T16:10:01.021Z,21.10
2023-05-22T16:12:28.535Z,21.08
2023-05-22T16:15:00.211Z,20.90
2023-05-22T16:17:28.534Z,20.65
2023-05-22T16:19:56.045Z,20.65
2023-05-22T16:22:24.746Z,20.89
2023-05-22T16:24:55.890Z,20.91
2023-05-22T16:27:23.379Z,20.83
2023-05-22T16:29:50.886Z,20.87
2023-05-22T16:32:18.408Z,20.88
2023-05-22T16:34:46.042Z,20.86
2023-05-22T16:37:13.701Z,20.79
2023-05-22T16:39:41.407Z,20.98
2023-05-22T16:42:08.919Z,21.21
2023-05-22T16:44:36.388Z,21.55
2023-05-22T16:47:04.262Z,21.86
2023-05-22T16:49:33.386Z,22.12
2023-05-22T16:52:01.015Z,22.01
2023-05-22T16:54:28.615Z,22.05
2023-05-22T16:56:56.139Z,22.11
2023-05-22T16:59:23.712Z,22.51
2023-05-22T17:01:51.346Z,22.74
2023-05-22T17:04:20.676Z,22.70
2023-05-22T17:06:49.136Z,22.82
2023-05-22T17:09:16.864Z,23.08
2023-05-22T17:11:44.368Z,22.89
2023-05-22T17:14:11.885Z,22.86
2023-05-22T17:16:39.806Z,22.81
2023-05-22T17:19:07.446Z,22.41
2023-05-22T17:21:34.927Z,22.11
2023-05-22T17:24:02.584Z,21.67
2023-05-22T17:26:30.437Z,21.11
2023-05-22T17:28:57.763Z,20.68
2023-05-22T17:31:25.800Z,20.44
2023-05-22T17:33:53.322Z,20.06
2023-05-22T17:36:20.954Z,19.71
2023-05-22T17:38:48.492Z,19.44
2023-05-22T17:41:16.192Z,19.20
2023-05-22T17:43:43.872Z,19.05
2023-05-22T17:46:11.465Z,18.85
2023-05-22T17:48:40.988Z,18.62
2023-05-22T17:51:09.455Z,18.48
2023-05-22T17:53:39.036Z,18.34
2023-05-22T17:56:07.134Z,18.21
2023-05-22T17:58:34.668Z,18.06
2023-05-22T18:01:02.294Z,17.98
2023-05-22T18:03:30.842Z,17.87
2023-05-22T18:05:58.730Z,17.78
2023-05-22T18:08:26.439Z,17.69
2023-05-22T18:10:55.801Z,17.63
2023-05-22T18:13:23.574Z,17.61
2023-05-22T18:15:51.803Z,17.56
2023-05-22T18:18:19.359Z,17.50
2023-05-22T18:20:47.071Z,17.43
2023-05-22T18:23:14.766Z,17.36
2023-05-22T18:25:42.582Z,17.27
2023-05-22T18:28:10.140Z,17.21
2023-05-22T18:30:37.901Z,17.15
2023-05-22T18:33:05.759Z,17.12
2023-05-22T18:35:33.308Z,17.06
2023-05-22T18:38:00.915Z,17.05
2023-05-22T18:40:28.584Z,17.02
2023-05-22T18:42:56.158Z,16.99
2023-05-22T18:45:23.844Z,16.95
2023-05-22T18:47:51.539Z,16.93
2023-05-22T18:50:19.609Z,16.88
2023-05-22T18:52:48.043Z,16.82
2023-05-22T18:55:15.559Z,16.77
2023-05-22T18:57:43.197Z,16.77
2023-05-22T19:00:11.242Z,16.77
2023-05-22T19:02:38.987Z,16.75
2023-05-22T19:05:07.125Z,16.73
2023-05-22T19:07:34.930Z,16.72
2023-05-22T19:10:05.516Z,16.73
2023-05-22T19:12:34.738Z,16.71
2023-05-22T19:15:03.010Z,16.67
2023-05-22T19:17:30.627Z,16.61
2023-05-22T19:19:58.538Z,16.58
2023-05-22T19:22:26.115Z,16.52
2023-05-22T19:24:53.712Z,16.46
2023-05-22T19:27:21.356Z,16.41
2023-05-22T19:29:48.949Z,16.36
2023-05-22T19:32:16.565Z,16.30
2023-05-22T19:34:44.055Z,16.26
2023-05-22T19:37:11.864Z,16.18
2023-05-22T19:39:39.485Z,16.17
2023-05-22T19:42:08.433Z,16.13
2023-05-22T19:44:36.041Z,16.12
2023-05-22T19:47:03.618Z,16.10
2023-05-22T19:49:36.604Z,16.08
2023-05-22T19:52:06.088Z,16.07
2023-05-22T19:54:34.210Z,16.03
2023-05-22T19:57:03.297Z,15.97
2023-05-22T19:59:30.775Z,15.90
2023-05-22T20:01:58.327Z,15.87
2023-05-22T20:04:26.074Z,15.78
2023-05-22T20:06:54.162Z,15.71
2023-05-22T20:09:21.663Z,15.67
2023-05-22T20:11:49.118Z,15.62
2023-05-22T20:14:16.781Z,15.58
2023-05-22T20:16:44.316Z,15.52
2023-05-22T20:19:14.259Z,15.47
2023-05-22T20:21:41.947Z,15.41
2023-05-22T20:24:17.457Z,15.36
2023-05-22T20:26:45.146Z,15.33
2023-05-22T20:29:14.577Z,15.31
2023-05-22T20:31:42.644Z,15.27
2023-05-22T20:34:10.201Z,15.25
2023-05-22T20:36:39.869Z,15.21
2023-05-22T20:39:07.736Z,15.18
2023-05-22T20:41:35.333Z,15.13
2023-05-22T20:44:03.766Z,15.06
2023-05-22T20:46:31.275Z,14.99
2023-05-22T20:48:59.576Z,14.92
2023-05-22T20:51:32.454Z,14.87
2023-05-22T20:54:00.897Z,14.85
2023-05-22T20:56:28.997Z,14.81
2023-05-22T20:58:57.010Z,14.78
2023-05-22T21:01:25.183Z,14.81
2023-05-22T21:03:56.428Z,14.79
2023-05-22T21:06:24.253Z,14.77
2023-05-22T21:08:53.974Z,14.76
2023-05-22T21:11:21.828Z,14.72
2023-05-22T21:13:49.363Z,14.70
2023-05-22T21:16:16.978Z,14.67
2023-05-22T21:18:44.913Z,14.62
2023-05-22T21:21:16.500Z,14.60
2023-05-22T21:23:44.107Z,14.59
2023-05-22T21:26:11.592Z,14.57
2023-05-22T21:28:39.329Z,14.56
2023-05-22T21:31:07.074Z,14.58
2023-05-22T21:33:34.802Z,14.60
2023-05-22T21:36:02.364Z,14.59
2023-05-22T21:38:29.981Z,14.56
2023-05-22T21:40:58.002Z,14.53
2023-05-22T21:43:26.031Z,14.55
2023-05-22T21:45:53.531Z,14.52
2023-05-22T21:48:21.201Z,14.51
2023-05-22T21:50:50.169Z,14.52
2023-05-22T21:53:17.807Z,14.51
2023-05-22T21:55:45.426Z,14.51
2023-05-22T21:58:13.683Z,14.49
2023-05-22T22:00:41.393Z,14.48
2023-05-22T22:03:09.228Z,14.45
2023-05-22T22:05:36.874Z,14.44
2023-05-22T22:08:05.179Z,14.41
2023-05-22T22:10:32.559Z,14.40
2023-05-22T22:13:01.732Z,14.40
2023-05-22T22:15:29.673Z,14.37
2023-05-22T22:17:59.455Z,14.37
2023-05-22T22:20:42.533Z,14.37
2023-05-22T22:23:11.618Z,14.37
2023-05-22T22:25:39.592Z,14.39
2023-05-22T22:28:07.582Z,14.37
2023-05-22T22:30:35.600Z,14.33
2023-05-22T22:33:03.338Z,14.28
2023-05-22T22:35:30.914Z,14.29
2023-05-22T22:37:59.111Z,14.31
2023-05-22T22:40:37.965Z,14.31
2023-05-22T22:43:05.712Z,14.31
2023-05-22T22:45:33.438Z,14.30
2023-05-22T22:48:01.035Z,14.31
2023-05-22T22:50:28.708Z,14.29
2023-05-22T22:52:56.258Z,14.30
2023-05-22T22:55:24.068Z,14.26
2023-05-22T22:57:51.971Z,14.23
2023-05-22T23:00:20.252Z,14.21
2023-05-22T23:02:47.874Z,14.19
2023-05-22T23:05:19.986Z,14.17
2023-05-22T23:07:48.146Z,14.13
2023-05-22T23:10:16.245Z,14.07
2023-05-22T23:12:43.996Z,14.01
2023-05-22T23:15:13.552Z,13.98
2023-05-22T23:17:41.454Z,13.92
2023-05-22T23:20:09.831Z,13.86
2023-05-22T23:22:37.763Z,13.85
2023-05-22T23:25:06.179Z,13.83
2023-05-22T23:27:33.552Z,13.81
2023-05-22T23:30:01.355Z,13.77
2023-05-22T23:32:29.001Z,13.74
2023-05-22T23:34:56.859Z,13.73
2023-05-22T23:37:24.558Z,13.72
2023-05-22T23:39:52.175Z,13.73
2023-05-22T23:42:19.768Z,13.72
2023-05-22T23:44:47.344Z,13.75
2023-05-22T23:47:15.448Z,13.73
2023-05-22T23:49:43.108Z,13.72
2023-05-22T23:52:12.293Z,13.69
2023-05-22T23:54:40.436Z,13.65
2023-05-22T23:57:08.142Z,13.63
2023-05-22T23:59:35.774Z,13.60
